sensor_id;sensor_type;location;lat;lon;timestamp;P1;durP1;ratioP1;P2;durP2;ratioP2
51943;SDS011;37969;53.132;6.370;2022-09-12T00:01:33;178.15;;;19.63;;
51943;SDS011;37969;53.132;6.370;2022-09-12T00:03:59;317.13;;;24.08;;
51943;SDS011;37969;53.132;6.370;2022-09-12T00:06:29;51.13;;;15.82;;
51943;SDS011;37969;53.132;6.370;2022-09-12T00:08:57;18.63;;;16.67;;
51943;SDS011;37969;53.132;6.370;2022-09-12T00:11:23;432.08;;;26.13;;
51943;SDS011;37969;53.132;6.370;2022-09-12T00:13:50;268.30;;;33.13;;
51943;SDS011;37969;53.132;6.370;2022-09-12T00:16:18;19.40;;;17.80;;
51943;SDS011;37969;53.132;6.370;2022-09-12T00:18:45;20.43;;;18.27;;
51943;SDS011;37969;53.132;6.370;2022-09-12T00:21:12;20.23;;;18.13;;
51943;SDS011;37969;53.132;6.370;2022-09-12T00:23:38;16.45;;;14.93;;
51943;SDS011;37969;53.132;6.370;2022-09-12T00:26:05;13.30;;;12.00;;
51943;SDS011;37969;53.132;6.370;2022-09-12T00:28:32;14.73;;;13.27;;
51943;SDS011;37969;53.132;6.370;2022-09-12T00:30:58;11.52;;;10.63;;
51943;SDS011;37969;53.132;6.370;2022-09-12T00:33:25;17.42;;;15.82;;
51943;SDS011;37969;53.132;6.370;2022-09-12T00:35:51;13.88;;;12.68;;
51943;SDS011;37969;53.132;6.370;2022-09-12T00:38:17;13.32;;;12.07;;
51943;SDS011;37969;53.132;6.370;2022-09-12T00:40:44;13.07;;;11.98;;
51943;SDS011;37969;53.132;6.370;2022-09-12T00:45:56;11.40;;;10.40;;
51943;SDS011;37969;53.132;6.370;2022-09-12T00:48:25;12.70;;;11.70;;
51943;SDS011;37969;53.132;6.370;2022-09-12T00:50:53;12.35;;;11.35;;
51943;SDS011;37969;53.132;6.370;2022-09-12T00:53:19;12.25;;;11.25;;
51943;SDS011;37969;53.132;6.370;2022-09-12T00:55:46;12.50;;;11.32;;
51943;SDS011;37969;53.132;6.370;2022-09-12T00:58:19;11.90;;;10.90;;
51943;SDS011;37969;53.132;6.370;2022-09-12T01:00:46;12.88;;;11.60;;
51943;SDS011;37969;53.132;6.370;2022-09-12T01:03:13;13.52;;;12.18;;
51943;SDS011;37969;53.132;6.370;2022-09-12T01:05:43;11.52;;;10.57;;
51943;SDS011;37969;53.132;6.370;2022-09-12T01:08:12;13.40;;;12.25;;
51943;SDS011;37969;53.132;6.370;2022-09-12T01:10:39;11.13;;;10.07;;
51943;SDS011;37969;53.132;6.370;2022-09-12T01:13:07;11.98;;;10.98;;
51943;SDS011;37969;53.132;6.370;2022-09-12T01:15:35;13.82;;;12.48;;
51943;SDS011;37969;53.132;6.370;2022-09-12T01:18:08;12.93;;;11.80;;
51943;SDS011;37969;53.132;6.370;2022-09-12T01:20:39;19.95;;;14.05;;
51943;SDS011;37969;53.132;6.370;2022-09-12T01:26:02;12.15;;;10.95;;
51943;SDS011;37969;53.132;6.370;2022-09-12T01:31:12;13.00;;;11.77;;
51943;SDS011;37969;53.132;6.370;2022-09-12T01:41:10;17.05;;;14.65;;
51943;SDS011;37969;53.132;6.370;2022-09-12T01:43:50;16.48;;;14.88;;
51943;SDS011;37969;53.132;6.370;2022-09-12T01:46:20;18.20;;;16.33;;
51943;SDS011;37969;53.132;6.370;2022-09-12T01:48:50;17.48;;;15.65;;
51943;SDS011;37969;53.132;6.370;2022-09-12T01:51:24;15.48;;;13.57;;
51943;SDS011;37969;53.132;6.370;2022-09-12T01:53:58;13.82;;;12.60;;
51943;SDS011;37969;53.132;6.370;2022-09-12T01:56:28;16.35;;;14.75;;
51943;SDS011;37969;53.132;6.370;2022-09-12T01:59:02;14.57;;;13.18;;
51943;SDS011;37969;53.132;6.370;2022-09-12T02:01:30;14.75;;;13.43;;
51943;SDS011;37969;53.132;6.370;2022-09-12T02:04:05;13.52;;;12.35;;
51943;SDS011;37969;53.132;6.370;2022-09-12T02:06:43;15.60;;;13.95;;
51943;SDS011;37969;53.132;6.370;2022-09-12T02:09:14;14.60;;;13.20;;
51943;SDS011;37969;53.132;6.370;2022-09-12T02:11:44;21.08;;;15.75;;
51943;SDS011;37969;53.132;6.370;2022-09-12T02:14:14;16.00;;;14.25;;
51943;SDS011;37969;53.132;6.370;2022-09-12T02:16:44;16.35;;;14.75;;
51943;SDS011;37969;53.132;6.370;2022-09-12T02:19:11;17.13;;;14.55;;
51943;SDS011;37969;53.132;6.370;2022-09-12T02:21:48;15.47;;;14.07;;
51943;SDS011;37969;53.132;6.370;2022-09-12T02:24:15;15.80;;;14.25;;
51943;SDS011;37969;53.132;6.370;2022-09-12T02:26:46;15.32;;;13.93;;
51943;SDS011;37969;53.132;6.370;2022-09-12T02:29:13;15.20;;;13.60;;
51943;SDS011;37969;53.132;6.370;2022-09-12T02:31:46;21.50;;;18.20;;
51943;SDS011;37969;53.132;6.370;2022-09-12T02:39:05;19.67;;;17.70;;
51943;SDS011;37969;53.132;6.370;2022-09-12T02:41:31;21.80;;;19.50;;
51943;SDS011;37969;53.132;6.370;2022-09-12T02:43:57;18.52;;;16.70;;
51943;SDS011;37969;53.132;6.370;2022-09-12T02:46:25;22.42;;;20.10;;
51943;SDS011;37969;53.132;6.370;2022-09-12T02:48:53;20.90;;;18.77;;
51943;SDS011;37969;53.132;6.370;2022-09-12T02:51:20;22.02;;;19.05;;
51943;SDS011;37969;53.132;6.370;2022-09-12T02:53:47;22.23;;;19.90;;
51943;SDS011;37969;53.132;6.370;2022-09-12T02:56:16;33.67;;;26.52;;
51943;SDS011;37969;53.132;6.370;2022-09-12T02:58:43;24.45;;;21.88;;
51943;SDS011;37969;53.132;6.370;2022-09-12T03:01:25;20.17;;;18.08;;
51943;SDS011;37969;53.132;6.370;2022-09-12T03:04:05;21.95;;;19.58;;
51943;SDS011;37969;53.132;6.370;2022-09-12T03:06:42;21.20;;;18.92;;
51943;SDS011;37969;53.132;6.370;2022-09-12T03:09:15;21.38;;;19.17;;
51943;SDS011;37969;53.132;6.370;2022-09-12T03:11:50;24.15;;;21.52;;
51943;SDS011;37969;53.132;6.370;2022-09-12T03:14:30;31.17;;;24.67;;
51943;SDS011;37969;53.132;6.370;2022-09-12T03:24:31;27.25;;;23.85;;
51943;SDS011;37969;53.132;6.370;2022-09-12T03:27:11;25.63;;;22.98;;
51943;SDS011;37969;53.132;6.370;2022-09-12T03:29:40;25.25;;;22.58;;
51943;SDS011;37969;53.132;6.370;2022-09-12T03:32:08;27.60;;;24.42;;
51943;SDS011;37969;53.132;6.370;2022-09-12T03:34:34;27.98;;;24.90;;
51943;SDS011;37969;53.132;6.370;2022-09-12T03:37:01;27.40;;;24.45;;
51943;SDS011;37969;53.132;6.370;2022-09-12T03:39:27;30.40;;;26.58;;
51943;SDS011;37969;53.132;6.370;2022-09-12T03:41:53;29.75;;;25.70;;
51943;SDS011;37969;53.132;6.370;2022-09-12T03:44:20;34.75;;;25.90;;
51943;SDS011;37969;53.132;6.370;2022-09-12T03:46:46;34.75;;;28.25;;
51943;SDS011;37969;53.132;6.370;2022-09-12T03:49:12;31.13;;;26.33;;
51943;SDS011;37969;53.132;6.370;2022-09-12T03:51:38;36.35;;;28.30;;
51943;SDS011;37969;53.132;6.370;2022-09-12T03:54:05;36.17;;;28.88;;
51943;SDS011;37969;53.132;6.370;2022-09-12T03:56:31;33.20;;;28.27;;
51943;SDS011;37969;53.132;6.370;2022-09-12T03:58:57;30.95;;;26.70;;
51943;SDS011;37969;53.132;6.370;2022-09-12T04:01:23;36.72;;;30.55;;
51943;SDS011;37969;53.132;6.370;2022-09-12T04:03:50;45.75;;;34.58;;
51943;SDS011;37969;53.132;6.370;2022-09-12T04:06:18;44.75;;;34.17;;
51943;SDS011;37969;53.132;6.370;2022-09-12T04:08:46;36.95;;;29.60;;
51943;SDS011;37969;53.132;6.370;2022-09-12T04:11:13;41.25;;;32.17;;
51943;SDS011;37969;53.132;6.370;2022-09-12T04:13:40;45.63;;;34.80;;
51943;SDS011;37969;53.132;6.370;2022-09-12T04:16:06;44.38;;;34.10;;
51943;SDS011;37969;53.132;6.370;2022-09-12T04:18:33;51.10;;;36.80;;
51943;SDS011;37969;53.132;6.370;2022-09-12T04:21:05;46.38;;;35.60;;
51943;SDS011;37969;53.132;6.370;2022-09-12T04:23:32;51.53;;;36.05;;
51943;SDS011;37969;53.132;6.370;2022-09-12T04:25:59;47.72;;;35.00;;
51943;SDS011;37969;53.132;6.370;2022-09-12T04:28:26;52.38;;;39.13;;
51943;SDS011;37969;53.132;6.370;2022-09-12T04:30:54;46.78;;;35.45;;
51943;SDS011;37969;53.132;6.370;2022-09-12T04:33:21;47.60;;;36.40;;
51943;SDS011;37969;53.132;6.370;2022-09-12T04:35:47;53.08;;;38.40;;
51943;SDS011;37969;53.132;6.370;2022-09-12T04:38:14;53.50;;;36.33;;
51943;SDS011;37969;53.132;6.370;2022-09-12T04:40:40;54.88;;;39.38;;
51943;SDS011;37969;53.132;6.370;2022-09-12T04:43:06;57.45;;;40.08;;
51943;SDS011;37969;53.132;6.370;2022-09-12T04:45:33;62.25;;;43.35;;
51943;SDS011;37969;53.132;6.370;2022-09-12T04:47:59;56.33;;;39.38;;
51943;SDS011;37969;53.132;6.370;2022-09-12T04:50:26;52.13;;;38.88;;
51943;SDS011;37969;53.132;6.370;2022-09-12T04:52:52;58.22;;;41.30;;
51943;SDS011;37969;53.132;6.370;2022-09-12T04:55:19;60.05;;;41.45;;
51943;SDS011;37969;53.132;6.370;2022-09-12T04:57:45;59.10;;;41.97;;
51943;SDS011;37969;53.132;6.370;2022-09-12T05:00:12;58.97;;;41.80;;
51943;SDS011;37969;53.132;6.370;2022-09-12T05:02:38;58.88;;;42.75;;
51943;SDS011;37969;53.132;6.370;2022-09-12T05:05:05;62.33;;;42.53;;
51943;SDS011;37969;53.132;6.370;2022-09-12T05:07:31;60.78;;;44.05;;
51943;SDS011;37969;53.132;6.370;2022-09-12T05:09:57;59.00;;;42.38;;
51943;SDS011;37969;53.132;6.370;2022-09-12T05:12:24;59.75;;;40.90;;
51943;SDS011;37969;53.132;6.370;2022-09-12T05:14:51;61.95;;;42.33;;
51943;SDS011;37969;53.132;6.370;2022-09-12T05:17:17;58.20;;;41.53;;
51943;SDS011;37969;53.132;6.370;2022-09-12T05:19:43;59.72;;;41.80;;
51943;SDS011;37969;53.132;6.370;2022-09-12T05:22:09;59.63;;;42.15;;
51943;SDS011;37969;53.132;6.370;2022-09-12T05:24:35;55.72;;;40.28;;
51943;SDS011;37969;53.132;6.370;2022-09-12T05:27:03;61.25;;;40.97;;
51943;SDS011;37969;53.132;6.370;2022-09-12T05:29:30;58.85;;;41.45;;
51943;SDS011;37969;53.132;6.370;2022-09-12T05:31:56;55.22;;;41.92;;
51943;SDS011;37969;53.132;6.370;2022-09-12T05:34:22;60.88;;;42.33;;
51943;SDS011;37969;53.132;6.370;2022-09-12T05:36:48;62.30;;;42.33;;
51943;SDS011;37969;53.132;6.370;2022-09-12T05:39:14;55.45;;;39.47;;
51943;SDS011;37969;53.132;6.370;2022-09-12T05:41:41;53.72;;;40.60;;
51943;SDS011;37969;53.132;6.370;2022-09-12T05:44:09;54.90;;;39.22;;
51943;SDS011;37969;53.132;6.370;2022-09-12T05:46:37;53.50;;;39.58;;
51943;SDS011;37969;53.132;6.370;2022-09-12T05:49:04;53.53;;;39.78;;
51943;SDS011;37969;53.132;6.370;2022-09-12T05:51:31;52.47;;;40.13;;
51943;SDS011;37969;53.132;6.370;2022-09-12T05:53:58;53.70;;;38.28;;
51943;SDS011;37969;53.132;6.370;2022-09-12T05:56:25;53.13;;;39.50;;
51943;SDS011;37969;53.132;6.370;2022-09-12T05:58:54;50.67;;;39.13;;
51943;SDS011;37969;53.132;6.370;2022-09-12T06:01:21;55.78;;;39.58;;
51943;SDS011;37969;53.132;6.370;2022-09-12T06:03:48;53.95;;;39.25;;
51943;SDS011;37969;53.132;6.370;2022-09-12T06:06:16;53.95;;;39.50;;
51943;SDS011;37969;53.132;6.370;2022-09-12T06:08:44;52.45;;;39.42;;
51943;SDS011;37969;53.132;6.370;2022-09-12T06:11:12;53.78;;;39.10;;
51943;SDS011;37969;53.132;6.370;2022-09-12T06:13:39;51.38;;;38.22;;
51943;SDS011;37969;53.132;6.370;2022-09-12T06:16:07;57.92;;;38.88;;
51943;SDS011;37969;53.132;6.370;2022-09-12T06:18:34;54.13;;;38.35;;
51943;SDS011;37969;53.132;6.370;2022-09-12T06:21:01;58.10;;;40.92;;
51943;SDS011;37969;53.132;6.370;2022-09-12T06:23:27;53.40;;;39.58;;
51943;SDS011;37969;53.132;6.370;2022-09-12T06:25:54;58.58;;;39.10;;
51943;SDS011;37969;53.132;6.370;2022-09-12T06:28:20;52.33;;;38.10;;
51943;SDS011;37969;53.132;6.370;2022-09-12T06:30:46;67.80;;;43.38;;
51943;SDS011;37969;53.132;6.370;2022-09-12T06:33:13;69.55;;;45.15;;
51943;SDS011;37969;53.132;6.370;2022-09-12T06:35:39;76.00;;;47.35;;
51943;SDS011;37969;53.132;6.370;2022-09-12T06:38:05;70.15;;;46.45;;
51943;SDS011;37969;53.132;6.370;2022-09-12T06:40:32;80.13;;;49.60;;
51943;SDS011;37969;53.132;6.370;2022-09-12T06:42:58;75.38;;;48.67;;
51943;SDS011;37969;53.132;6.370;2022-09-12T06:45:24;82.53;;;51.28;;
51943;SDS011;37969;53.132;6.370;2022-09-12T06:47:50;82.05;;;51.42;;
51943;SDS011;37969;53.132;6.370;2022-09-12T06:50:16;79.82;;;50.95;;
51943;SDS011;37969;53.132;6.370;2022-09-12T06:52:42;73.43;;;47.75;;
51943;SDS011;37969;53.132;6.370;2022-09-12T06:55:09;81.32;;;51.90;;
51943;SDS011;37969;53.132;6.370;2022-09-12T06:57:35;76.00;;;47.65;;
51943;SDS011;37969;53.132;6.370;2022-09-12T07:00:04;81.20;;;51.25;;
51943;SDS011;37969;53.132;6.370;2022-09-12T07:02:30;82.35;;;53.15;;
51943;SDS011;37969;53.132;6.370;2022-09-12T07:04:56;80.47;;;49.20;;
51943;SDS011;37969;53.132;6.370;2022-09-12T07:07:22;82.50;;;51.65;;
51943;SDS011;37969;53.132;6.370;2022-09-12T07:09:49;78.07;;;50.35;;
51943;SDS011;37969;53.132;6.370;2022-09-12T07:12:15;84.78;;;53.15;;
51943;SDS011;37969;53.132;6.370;2022-09-12T07:14:41;80.70;;;51.17;;
51943;SDS011;37969;53.132;6.370;2022-09-12T07:17:07;81.05;;;51.58;;
51943;SDS011;37969;53.132;6.370;2022-09-12T07:19:33;84.57;;;51.20;;
51943;SDS011;37969;53.132;6.370;2022-09-12T07:22:00;79.47;;;50.90;;
51943;SDS011;37969;53.132;6.370;2022-09-12T07:24:26;72.05;;;48.63;;
51943;SDS011;37969;53.132;6.370;2022-09-12T07:26:52;80.72;;;50.50;;
51943;SDS011;37969;53.132;6.370;2022-09-12T07:29:18;82.03;;;50.97;;
51943;SDS011;37969;53.132;6.370;2022-09-12T07:31:44;81.15;;;51.22;;
51943;SDS011;37969;53.132;6.370;2022-09-12T07:34:11;70.40;;;45.88;;
51943;SDS011;37969;53.132;6.370;2022-09-12T07:36:38;83.32;;;49.72;;
51943;SDS011;37969;53.132;6.370;2022-09-12T07:39:04;79.32;;;50.95;;
51943;SDS011;37969;53.132;6.370;2022-09-12T07:41:30;76.07;;;51.03;;
51943;SDS011;37969;53.132;6.370;2022-09-12T07:43:59;83.28;;;51.13;;
51943;SDS011;37969;53.132;6.370;2022-09-12T07:46:26;74.55;;;49.40;;
51943;SDS011;37969;53.132;6.370;2022-09-12T07:48:54;78.90;;;50.88;;
51943;SDS011;37969;53.132;6.370;2022-09-12T07:51:20;76.88;;;50.88;;
51943;SDS011;37969;53.132;6.370;2022-09-12T07:53:47;73.72;;;48.95;;
51943;SDS011;37969;53.132;6.370;2022-09-12T07:56:13;78.28;;;49.60;;
51943;SDS011;37969;53.132;6.370;2022-09-12T07:58:40;79.65;;;50.10;;
51943;SDS011;37969;53.132;6.370;2022-09-12T08:03:34;77.95;;;51.15;;
51943;SDS011;37969;53.132;6.370;2022-09-12T08:06:01;82.55;;;51.83;;
51943;SDS011;37969;53.132;6.370;2022-09-12T08:08:28;77.50;;;51.55;;
51943;SDS011;37969;53.132;6.370;2022-09-12T08:10:58;84.47;;;52.70;;
51943;SDS011;37969;53.132;6.370;2022-09-12T08:13:25;79.38;;;52.17;;
51943;SDS011;37969;53.132;6.370;2022-09-12T08:15:55;75.80;;;50.00;;
51943;SDS011;37969;53.132;6.370;2022-09-12T08:18:21;78.28;;;51.03;;
51943;SDS011;37969;53.132;6.370;2022-09-12T08:20:47;81.50;;;53.30;;
51943;SDS011;37969;53.132;6.370;2022-09-12T08:23:13;78.10;;;49.60;;
51943;SDS011;37969;53.132;6.370;2022-09-12T08:25:40;77.25;;;51.45;;
51943;SDS011;37969;53.132;6.370;2022-09-12T08:28:06;78.18;;;50.10;;
51943;SDS011;37969;53.132;6.370;2022-09-12T08:30:32;77.65;;;50.35;;
51943;SDS011;37969;53.132;6.370;2022-09-12T08:32:58;77.30;;;49.88;;
51943;SDS011;37969;53.132;6.370;2022-09-12T08:35:24;77.22;;;50.33;;
51943;SDS011;37969;53.132;6.370;2022-09-12T08:37:50;72.10;;;49.65;;
51943;SDS011;37969;53.132;6.370;2022-09-12T08:40:17;75.20;;;50.25;;
51943;SDS011;37969;53.132;6.370;2022-09-12T08:42:53;72.47;;;47.80;;
51943;SDS011;37969;53.132;6.370;2022-09-12T08:45:29;69.47;;;47.55;;
51943;SDS011;37969;53.132;6.370;2022-09-12T08:47:57;68.75;;;47.90;;
51943;SDS011;37969;53.132;6.370;2022-09-12T08:50:25;74.45;;;48.13;;
51943;SDS011;37969;53.132;6.370;2022-09-12T08:52:58;74.05;;;46.55;;
51943;SDS011;37969;53.132;6.370;2022-09-12T08:55:29;65.93;;;47.60;;
51943;SDS011;37969;53.132;6.370;2022-09-12T08:57:56;70.88;;;48.65;;
51943;SDS011;37969;53.132;6.370;2022-09-12T09:00:24;73.25;;;47.97;;
51943;SDS011;37969;53.132;6.370;2022-09-12T09:02:58;75.35;;;48.25;;
51943;SDS011;37969;53.132;6.370;2022-09-12T09:10:29;68.93;;;47.70;;
51943;SDS011;37969;53.132;6.370;2022-09-12T09:18:00;69.97;;;48.50;;
51943;SDS011;37969;53.132;6.370;2022-09-12T09:23:15;74.07;;;49.65;;
51943;SDS011;37969;53.132;6.370;2022-09-12T09:25:59;71.88;;;51.25;;
51943;SDS011;37969;53.132;6.370;2022-09-12T09:28:34;75.50;;;49.13;;
51943;SDS011;37969;53.132;6.370;2022-09-12T09:31:02;74.15;;;49.67;;
51943;SDS011;37969;53.132;6.370;2022-09-12T09:33:31;76.22;;;51.72;;
51943;SDS011;37969;53.132;6.370;2022-09-12T09:36:04;68.10;;;48.88;;
51943;SDS011;37969;53.132;6.370;2022-09-12T09:41:12;68.65;;;47.15;;
51943;SDS011;37969;53.132;6.370;2022-09-12T09:43:41;69.25;;;47.33;;
51943;SDS011;37969;53.132;6.370;2022-09-12T09:46:08;68.60;;;46.35;;
51943;SDS011;37969;53.132;6.370;2022-09-12T09:48:36;76.93;;;49.25;;
51943;SDS011;37969;53.132;6.370;2022-09-12T09:51:03;72.80;;;45.78;;
51943;SDS011;37969;53.132;6.370;2022-09-12T09:56:02;70.60;;;46.78;;
51943;SDS011;37969;53.132;6.370;2022-09-12T09:58:30;67.95;;;44.60;;
51943;SDS011;37969;53.132;6.370;2022-09-12T10:01:00;71.00;;;44.83;;
51943;SDS011;37969;53.132;6.370;2022-09-12T10:03:33;67.25;;;42.75;;
51943;SDS011;37969;53.132;6.370;2022-09-12T10:06:07;69.57;;;44.17;;
51943;SDS011;37969;53.132;6.370;2022-09-12T10:08:47;65.25;;;41.75;;
51943;SDS011;37969;53.132;6.370;2022-09-12T10:13:50;62.78;;;40.97;;
51943;SDS011;37969;53.132;6.370;2022-09-12T10:16:18;51.10;;;35.50;;
51943;SDS011;37969;53.132;6.370;2022-09-12T10:18:46;57.25;;;36.95;;
51943;SDS011;37969;53.132;6.370;2022-09-12T10:21:15;57.35;;;36.42;;
51943;SDS011;37969;53.132;6.370;2022-09-12T10:26:10;51.55;;;35.58;;
51943;SDS011;37969;53.132;6.370;2022-09-12T10:28:38;52.10;;;35.60;;
51943;SDS011;37969;53.132;6.370;2022-09-12T10:31:05;50.10;;;34.00;;
51943;SDS011;37969;53.132;6.370;2022-09-12T10:33:33;49.70;;;31.25;;
51943;SDS011;37969;53.132;6.370;2022-09-12T10:36:01;47.53;;;29.75;;
51943;SDS011;37969;53.132;6.370;2022-09-12T10:38:30;36.05;;;24.63;;
51943;SDS011;37969;53.132;6.370;2022-09-12T10:40:59;40.00;;;27.27;;
51943;SDS011;37969;53.132;6.370;2022-09-12T10:43:27;44.28;;;27.15;;
51943;SDS011;37969;53.132;6.370;2022-09-12T10:45:56;43.40;;;29.43;;
51943;SDS011;37969;53.132;6.370;2022-09-12T10:48:27;41.05;;;27.35;;
51943;SDS011;37969;53.132;6.370;2022-09-12T10:50:55;37.50;;;26.17;;
51943;SDS011;37969;53.132;6.370;2022-09-12T10:53:22;38.65;;;26.38;;
51943;SDS011;37969;53.132;6.370;2022-09-12T10:56:01;27.88;;;19.98;;
51943;SDS011;37969;53.132;6.370;2022-09-12T10:58:31;27.23;;;18.48;;
51943;SDS011;37969;53.132;6.370;2022-09-12T11:01:03;27.75;;;18.90;;
51943;SDS011;37969;53.132;6.370;2022-09-12T11:03:39;24.42;;;16.77;;
51943;SDS011;37969;53.132;6.370;2022-09-12T11:06:07;28.08;;;16.42;;
51943;SDS011;37969;53.132;6.370;2022-09-12T11:16:21;19.85;;;16.08;;
51943;SDS011;37969;53.132;6.370;2022-09-12T11:21:32;21.30;;;14.38;;
51943;SDS011;37969;53.132;6.370;2022-09-12T11:24:20;22.38;;;15.77;;
51943;SDS011;37969;53.132;6.370;2022-09-12T11:26:56;19.40;;;14.90;;
51943;SDS011;37969;53.132;6.370;2022-09-12T11:32:24;17.05;;;11.68;;
51943;SDS011;37969;53.132;6.370;2022-09-12T11:35:02;15.18;;;11.48;;
51943;SDS011;37969;53.132;6.370;2022-09-12T11:39:58;15.07;;;12.40;;
51943;SDS011;37969;53.132;6.370;2022-09-12T11:42:28;17.50;;;12.75;;
51943;SDS011;37969;53.132;6.370;2022-09-12T11:45:00;14.93;;;12.02;;
51943;SDS011;37969;53.132;6.370;2022-09-12T11:47:28;18.55;;;13.07;;
51943;SDS011;37969;53.132;6.370;2022-09-12T11:49:57;16.77;;;12.68;;
51943;SDS011;37969;53.132;6.370;2022-09-12T11:52:28;19.80;;;12.95;;
51943;SDS011;37969;53.132;6.370;2022-09-12T11:55:09;17.95;;;13.80;;
51943;SDS011;37969;53.132;6.370;2022-09-12T12:00:05;20.75;;;15.20;;
51943;SDS011;37969;53.132;6.370;2022-09-12T12:02:34;18.88;;;15.52;;
51943;SDS011;37969;53.132;6.370;2022-09-12T12:05:08;20.40;;;15.93;;
51943;SDS011;37969;53.132;6.370;2022-09-12T12:07:41;20.13;;;15.02;;
51943;SDS011;37969;53.132;6.370;2022-09-12T12:10:21;19.00;;;13.77;;
51943;SDS011;37969;53.132;6.370;2022-09-12T12:12:49;17.45;;;14.30;;
51943;SDS011;37969;53.132;6.370;2022-09-12T12:15:16;17.73;;;13.38;;
51943;SDS011;37969;53.132;6.370;2022-09-12T12:17:43;14.18;;;10.35;;
51943;SDS011;37969;53.132;6.370;2022-09-12T12:20:14;16.55;;;10.18;;
51943;SDS011;37969;53.132;6.370;2022-09-12T12:22:51;11.80;;;9.70;;
51943;SDS011;37969;53.132;6.370;2022-09-12T12:27:52;13.00;;;9.52;;
51943;SDS011;37969;53.132;6.370;2022-09-12T12:33:01;14.82;;;10.75;;
51943;SDS011;37969;53.132;6.370;2022-09-12T12:35:36;12.63;;;8.85;;
51943;SDS011;37969;53.132;6.370;2022-09-12T12:38:03;10.50;;;8.65;;
51943;SDS011;37969;53.132;6.370;2022-09-12T12:40:48;14.45;;;10.30;;
51943;SDS011;37969;53.132;6.370;2022-09-12T12:43:27;16.92;;;11.48;;
51943;SDS011;37969;53.132;6.370;2022-09-12T12:46:02;9.18;;;7.93;;
51943;SDS011;37969;53.132;6.370;2022-09-12T12:48:29;12.68;;;9.90;;
51943;SDS011;37969;53.132;6.370;2022-09-12T12:53:41;17.25;;;10.40;;
51943;SDS011;37969;53.132;6.370;2022-09-12T12:56:24;13.20;;;10.32;;
51943;SDS011;37969;53.132;6.370;2022-09-12T12:58:56;15.20;;;12.25;;
51943;SDS011;37969;53.132;6.370;2022-09-12T13:01:23;17.00;;;12.13;;
51943;SDS011;37969;53.132;6.370;2022-09-12T13:03:52;12.45;;;8.93;;
51943;SDS011;37969;53.132;6.370;2022-09-12T13:08:45;14.85;;;10.65;;
51943;SDS011;37969;53.132;6.370;2022-09-12T13:11:30;11.88;;;10.18;;
51943;SDS011;37969;53.132;6.370;2022-09-12T13:13:57;13.07;;;10.30;;
51943;SDS011;37969;53.132;6.370;2022-09-12T13:16:28;18.10;;;12.88;;
51943;SDS011;37969;53.132;6.370;2022-09-12T13:18:55;16.05;;;12.60;;
51943;SDS011;37969;53.132;6.370;2022-09-12T13:21:22;14.93;;;11.10;;
51943;SDS011;37969;53.132;6.370;2022-09-12T13:24:02;15.85;;;10.25;;
51943;SDS011;37969;53.132;6.370;2022-09-12T13:26:32;15.75;;;12.32;;
51943;SDS011;37969;53.132;6.370;2022-09-12T13:29:11;13.75;;;11.55;;
51943;SDS011;37969;53.132;6.370;2022-09-12T13:31:39;14.82;;;12.30;;
51943;SDS011;37969;53.132;6.370;2022-09-12T13:34:05;18.30;;;10.85;;
51943;SDS011;37969;53.132;6.370;2022-09-12T13:36:40;13.65;;;9.98;;
51943;SDS011;37969;53.132;6.370;2022-09-12T13:41:38;13.30;;;10.40;;
51943;SDS011;37969;53.132;6.370;2022-09-12T13:44:08;14.18;;;11.40;;
51943;SDS011;37969;53.132;6.370;2022-09-12T13:49:04;13.40;;;11.07;;
51943;SDS011;37969;53.132;6.370;2022-09-12T13:51:32;14.60;;;12.35;;
51943;SDS011;37969;53.132;6.370;2022-09-12T13:53:59;18.38;;;12.85;;
51943;SDS011;37969;53.132;6.370;2022-09-12T13:56:27;15.68;;;12.50;;
51943;SDS011;37969;53.132;6.370;2022-09-12T13:58:54;14.82;;;12.15;;
51943;SDS011;37969;53.132;6.370;2022-09-12T14:01:23;15.85;;;12.95;;
51943;SDS011;37969;53.132;6.370;2022-09-12T14:03:51;13.95;;;12.43;;
51943;SDS011;37969;53.132;6.370;2022-09-12T14:06:44;17.13;;;13.48;;
51943;SDS011;37969;53.132;6.370;2022-09-12T14:09:13;17.55;;;12.88;;
51943;SDS011;37969;53.132;6.370;2022-09-12T14:11:40;17.08;;;13.57;;
51943;SDS011;37969;53.132;6.370;2022-09-12T14:14:13;13.70;;;11.10;;
51943;SDS011;37969;53.132;6.370;2022-09-12T14:16:43;14.35;;;10.82;;
51943;SDS011;37969;53.132;6.370;2022-09-12T14:19:09;11.15;;;8.25;;
51943;SDS011;37969;53.132;6.370;2022-09-12T14:21:36;9.00;;;6.80;;
51943;SDS011;37969;53.132;6.370;2022-09-12T14:24:03;9.38;;;7.85;;
51943;SDS011;37969;53.132;6.370;2022-09-12T14:26:32;8.85;;;7.95;;
51943;SDS011;37969;53.132;6.370;2022-09-12T14:29:00;12.97;;;8.13;;
51943;SDS011;37969;53.132;6.370;2022-09-12T14:31:28;9.40;;;7.50;;
51943;SDS011;37969;53.132;6.370;2022-09-12T14:34:10;10.23;;;7.60;;
51943;SDS011;37969;53.132;6.370;2022-09-12T14:36:41;7.20;;;5.53;;
51943;SDS011;37969;53.132;6.370;2022-09-12T14:41:51;8.23;;;4.75;;
51943;SDS011;37969;53.132;6.370;2022-09-12T14:44:25;5.70;;;4.70;;
51943;SDS011;37969;53.132;6.370;2022-09-12T14:46:52;5.50;;;4.40;;
51943;SDS011;37969;53.132;6.370;2022-09-12T14:49:19;6.45;;;5.85;;
51943;SDS011;37969;53.132;6.370;2022-09-12T14:54:38;5.90;;;5.35;;
51943;SDS011;37969;53.132;6.370;2022-09-12T14:57:27;6.90;;;5.50;;
51943;SDS011;37969;53.132;6.370;2022-09-12T14:59:52;5.20;;;4.70;;
51943;SDS011;37969;53.132;6.370;2022-09-12T15:04:47;5.57;;;4.35;;
51943;SDS011;37969;53.132;6.370;2022-09-12T15:07:14;5.27;;;4.77;;
51943;SDS011;37969;53.132;6.370;2022-09-12T15:09:40;6.70;;;6.07;;
51943;SDS011;37969;53.132;6.370;2022-09-12T15:12:08;7.32;;;6.63;;
51943;SDS011;37969;53.132;6.370;2022-09-12T15:14:34;6.80;;;6.10;;
51943;SDS011;37969;53.132;6.370;2022-09-12T15:17:00;5.70;;;5.20;;
51943;SDS011;37969;53.132;6.370;2022-09-12T15:19:26;8.65;;;6.32;;
51943;SDS011;37969;53.132;6.370;2022-09-12T15:21:53;10.30;;;6.03;;
51943;SDS011;37969;53.132;6.370;2022-09-12T15:24:19;7.50;;;5.88;;
51943;SDS011;37969;53.132;6.370;2022-09-12T15:26:45;8.90;;;5.47;;
51943;SDS011;37969;53.132;6.370;2022-09-12T15:29:11;6.90;;;5.30;;
51943;SDS011;37969;53.132;6.370;2022-09-12T15:31:38;8.35;;;5.95;;
51943;SDS011;37969;53.132;6.370;2022-09-12T15:34:04;7.40;;;6.65;;
51943;SDS011;37969;53.132;6.370;2022-09-12T15:36:31;7.40;;;6.68;;
51943;SDS011;37969;53.132;6.370;2022-09-12T15:38:57;8.50;;;6.30;;
51943;SDS011;37969;53.132;6.370;2022-09-12T15:41:25;8.63;;;6.95;;
51943;SDS011;37969;53.132;6.370;2022-09-12T15:43:53;10.45;;;7.63;;
51943;SDS011;37969;53.132;6.370;2022-09-12T15:46:19;7.50;;;6.78;;
51943;SDS011;37969;53.132;6.370;2022-09-12T15:48:45;8.77;;;7.55;;
51943;SDS011;37969;53.132;6.370;2022-09-12T15:51:12;10.98;;;7.45;;
51943;SDS011;37969;53.132;6.370;2022-09-12T15:53:39;10.00;;;6.78;;
51943;SDS011;37969;53.132;6.370;2022-09-12T15:56:05;12.65;;;7.70;;
51943;SDS011;37969;53.132;6.370;2022-09-12T15:58:31;9.90;;;8.02;;
51943;SDS011;37969;53.132;6.370;2022-09-12T16:00:58;9.80;;;7.78;;
51943;SDS011;37969;53.132;6.370;2022-09-12T16:03:26;10.65;;;7.45;;
51943;SDS011;37969;53.132;6.370;2022-09-12T16:05:54;8.57;;;7.00;;
51943;SDS011;37969;53.132;6.370;2022-09-12T16:08:21;7.72;;;6.18;;